Time;durP1;ratioP1;P1;durP2;ratioP2;P2;SDS_P1;SDS_P2;PMS_P1;PMS_P2;Temp;Humidity;BMP_temperature;BMP_pressure;BME280_temperature;BME280_humidity;BME280_pressure;Samples;Min_cycle;Max_cycle;Signal;HPM_P1;HPM_P2
2022/02/08 00:02:16;;;;;;;44.78;42.05;;;;;;;3.22;100.00;100199.78;5055378;28;20053;-79
2022/02/08 00:04:43;;;;;;;44.65;41.95;;;;;;;3.42;100.00;100197.56;5055117;28;20053;-80
2022/02/08 00:07:11;;;;;;;42.80;39.85;;;;;;;3.39;100.00;100198.72;5054535;28;20040;-80
2022/02/08 00:09:38;;;;;;;41.22;38.72;;;;;;;3.28;100.00;100204.34;5054940;28;20102;-78
2022/02/08 00:12:06;;;;;;;52.50;49.33;;;;;;;3.41;100.00;100204.59;5055258;28;20045;-84
2022/02/08 00:14:32;;;;;;;52.20;48.78;;;;;;;3.48;100.00;100203.91;5054929;28;20370;-80
2022/02/08 00:17:00;;;;;;;49.08;45.92;;;;;;;3.59;100.00;100211.41;5054710;28;20053;-84
2022/02/08 00:19:28;;;;;;;47.25;44.55;;;;;;;3.57;100.00;100214.22;5055427;28;20102;-79
2022/02/08 00:21:55;;;;;;;50.60;47.40;;;;;;;3.49;100.00;100210.81;5054667;28;20049;-78
2022/02/08 00:24:22;;;;;;;46.70;44.00;;;;;;;3.50;100.00;100210.63;5054145;28;20444;-81
2022/02/08 00:26:49;;;;;;;51.97;48.58;;;;;;;3.08;100.00;100218.84;5055141;28;20456;-80
2022/02/08 00:29:15;;;;;;;47.38;44.28;;;;;;;3.23;100.00;100217.16;5055115;28;20053;-84
2022/02/08 00:31:42;;;;;;;44.03;41.20;;;;;;;3.40;100.00;100223.97;5054459;28;20118;-80
2022/02/08 00:34:11;;;;;;;47.38;44.05;;;;;;;3.17;100.00;100228.31;5055304;28;20057;-84
2022/02/08 00:36:38;;;;;;;48.08;44.42;;;;;;;3.13;100.00;100246.22;5049867;28;20480;-83
2022/02/08 00:39:07;;;;;;;46.35;42.33;;;;;;;3.06;100.00;100254.94;5053854;28;20044;-80
2022/02/08 00:41:35;;;;;;;42.80;39.05;;;;;;;3.04;100.00;100265.59;5055081;28;20041;-84
2022/02/08 00:44:06;;;;;;;49.83;46.13;;;;;;;3.04;100.00;100270.84;5055520;28;20461;-80
2022/02/08 00:46:38;;;;;;;51.97;47.83;;;;;;;3.06;100.00;100270.69;5054971;28;20052;-79
2022/02/08 00:49:07;;;;;;;;;;;;;;;3.03;100.00;100277.09;5050780;28;20052;-80
2022/02/08 00:51:42;;;;;;;48.03;43.25;;;;;;;3.17;100.00;100268.50;5054512;28;19921;-80
2022/02/08 00:54:09;;;;;;;56.70;51.13;;;;;;;3.12;100.00;100275.28;5053547;28;20071;-80
2022/02/08 00:56:36;;;;;;;65.10;58.28;;;;;;;3.22;100.00;100278.50;5053900;28;20114;-80
2022/02/08 00:59:03;;;;;;;67.55;60.67;;;;;;;3.09;100.00;100281.66;5055308;28;20053;-80
2022/02/08 01:01:34;;;;;;;67.43;60.30;;;;;;;3.82;100.00;100298.16;5054599;28;20473;-80
2022/02/08 01:04:01;;;;;;;64.95;57.90;;;;;;;3.35;100.00;100309.47;5055040;28;20049;-80
2022/02/08 01:06:28;;;;;;;94.65;81.10;;;;;;;3.36;100.00;100306.69;5055273;28;20071;-79
2022/02/08 01:09:09;;;;;;;77.95;68.07;;;;;;;3.44;100.00;100321.59;5047838;28;20068;-80
2022/02/08 01:11:36;;;;;;;78.93;63.55;;;;;;;3.35;100.00;100335.72;5054263;28;20052;-80
2022/02/08 01:14:03;;;;;;;74.50;66.32;;;;;;;3.35;100.00;100336.53;5054725;28;20056;-79
2022/02/08 01:16:30;;;;;;;71.88;64.80;;;;;;;3.39;100.00;100355.44;5054493;28;20049;-84
2022/02/08 01:18:59;;;;;;;72.65;65.85;;;;;;;3.12;100.00;100362.69;5054648;28;20136;-79
2022/02/08 01:21:26;;;;;;;73.10;66.03;;;;;;;3.52;100.00;100363.59;5054135;28;20088;-80
2022/02/08 01:23:53;;;;;;;69.10;62.65;;;;;;;3.39;100.00;100381.69;5053335;28;20053;-80
2022/02/08 01:26:21;;;;;;;70.97;64.78;;;;;;;3.18;100.00;100380.41;5053721;28;20488;-80
2022/02/08 01:28:55;;;;;;;62.65;57.28;;;;;;;2.96;100.00;100384.50;5054326;28;20067;-80
2022/02/08 01:31:23;;;;;;;51.90;48.17;;;;;;;3.05;100.00;100390.56;5054294;28;20059;-84
2022/02/08 01:34:09;;;;;;;54.13;50.90;;;;;;;3.19;100.00;100397.78;5053009;28;20076;-79
2022/02/08 01:36:44;;;;;;;47.60;44.90;;;;;;;2.57;100.00;100394.78;5050736;28;20068;-80
2022/02/08 01:39:17;;;;;;;45.80;43.30;;;;;;;2.81;100.00;100406.28;5053611;28;20505;-79
2022/02/08 01:44:39;;;;;;;65.22;60.58;;;;;;;2.45;100.00;100422.28;5053065;28;20047;-84
2022/02/08 01:47:21;;;;;;;69.38;64.13;;;;;;;2.44;100.00;100426.72;5054689;28;20079;-84
2022/02/08 01:49:59;;;;;;;51.75;48.33;;;;;;;2.39;100.00;100438.66;5052507;28;20092;-84
2022/02/08 01:52:26;;;;;;;43.97;41.15;;;;;;;2.29;100.00;100438.81;5054083;28;20469;-81
2022/02/08 01:54:52;;;;;;;46.03;43.22;;;;;;;2.31;100.00;100449.13;5052349;28;20114;-79
2022/02/08 01:57:21;;;;;;;42.88;40.35;;;;;;;2.31;100.00;100452.56;5053585;28;20053;-83
2022/02/08 01:59:48;;;;;;;42.25;39.53;;;;;;;2.26;100.00;100454.84;5052168;28;20433;-80
2022/02/08 02:02:14;;;;;;;43.42;40.88;;;;;;;2.22;100.00;100469.25;5053431;28;20052;-79
2022/02/08 02:04:42;;;;;;;56.22;52.83;;;;;;;2.17;100.00;100468.88;5053302;28;20049;-84
2022/02/08 02:07:09;;;;;;;59.45;54.33;;;;;;;2.26;100.00;100466.13;5053661;28;20401;-84
2022/02/08 02:09:36;;;;;;;49.03;45.53;;;;;;;2.20;100.00;100465.97;5053375;28;20045;-83
2022/02/08 02:12:06;;;;;;;47.13;44.00;;;;;;;2.04;100.00;100459.66;5053434;28;20094;-83
2022/02/08 02:14:37;;;;;;;44.67;41.38;;;;;;;2.15;100.00;100476.94;5053059;28;20045;-82
2022/02/08 02:17:05;;;;;;;39.83;37.40;;;;;;;2.08;100.00;100486.38;5054090;28;20068;-80
2022/02/08 02:19:31;;;;;;;51.22;47.70;;;;;;;2.03;100.00;100493.91;5047685;28;20045;-82
2022/02/08 02:22:01;;;;;;;68.00;64.10;;;;;;;2.08;100.00;100498.66;5053037;28;20068;-81
2022/02/08 02:24:29;;;;;;;64.80;60.85;;;;;;;2.10;100.00;100501.94;5053445;28;20480;-80
2022/02/08 02:26:58;;;;;;;81.13;75.68;;;;;;;2.03;100.00;100505.19;5053562;28;20045;-80
2022/02/08 02:29:26;;;;;;;72.75;67.60;;;;;;;2.02;100.00;100508.78;5053283;28;20059;-79
2022/02/08 02:31:54;;;;;;;62.22;58.50;;;;;;;1.96;100.00;100519.88;5049618;28;20055;-81
2022/02/08 02:34:22;;;;;;;57.00;53.90;;;;;;;1.89;100.00;100523.28;5053170;28;20053;-84
2022/02/08 02:36:50;;;;;;;61.92;58.53;;;;;;;1.87;100.00;100531.28;5053594;28;20543;-84
2022/02/08 02:39:22;;;;;;;53.30;49.80;;;;;;;1.98;100.00;100530.22;5053444;28;20045;-80
2022/02/08 02:41:51;;;;;;;40.17;37.53;;;;;;;1.97;100.00;100536.44;5053077;28;20053;-85
2022/02/08 02:44:21;;;;;;;57.97;46.72;;;;;;;1.76;100.00;100540.22;5053257;28;20118;-81
2022/02/08 02:46:49;;;;;;;93.35;56.35;;;;;;;1.61;100.00;100546.97;5052772;28;20480;-84
2022/02/08 02:49:16;;;;;;;51.45;46.45;;;;;;;1.73;100.00;100540.53;5056361;28;20049;-81
2022/02/08 02:51:43;;;;;;;88.75;55.40;;;;;;;1.60;100.00;100547.94;5055975;28;20083;-80
2022/02/08 02:54:15;;;;;;;73.07;54.13;;;;;;;1.47;100.00;100545.72;5056830;28;20049;-80
2022/02/08 02:56:42;;;;;;;139.68;73.50;;;;;;;1.67;100.00;100553.41;5056836;28;20151;-84
2022/02/08 02:59:11;;;;;;;70.63;48.83;;;;;;;1.63;100.00;100549.44;5055895;28;20438;-84
2022/02/08 03:02:08;;;;;;;39.92;37.33;;;;;;;1.51;100.00;100554.91;5150993;22;20041;-81
2022/02/08 03:04:48;;;;;;;44.72;41.58;;;;;;;1.49;100.00;100556.84;5037607;28;20057;-84
2022/02/08 03:20:54;;;;;;;42.88;39.67;;;;;;;1.13;100.00;100590.03;5035826;28;20054;-80
2022/02/08 03:23:20;;;;;;;40.10;36.75;;;;;;;1.22;100.00;100599.63;5036016;28;20049;-78
2022/02/08 03:25:47;;;;;;;36.75;33.95;;;;;;;0.96;100.00;100604.72;5036976;28;20115;-80
2022/02/08 03:28:14;;;;;;;36.55;34.25;;;;;;;0.97;100.00;100611.63;5036349;28;20115;-81
2022/02/08 03:30:42;;;;;;;35.45;33.35;;;;;;;0.92;100.00;100616.44;5036347;28;20045;-82
2022/02/08 03:33:09;;;;;;;35.42;33.45;;;;;;;0.95;100.00;100620.56;5036326;28;20492;-84
2022/02/08 03:35:36;;;;;;;39.03;36.83;;;;;;;1.08;100.00;100627.09;5035224;28;20147;-80
2022/02/08 03:38:05;;;;;;;37.03;35.08;;;;;;;1.09;100.00;100639.22;5033219;28;20057;-80
2022/02/08 03:40:39;;;;;;;41.65;39.35;;;;;;;0.91;100.00;100639.16;5035178;28;20084;-80
2022/02/08 03:43:25;;;;;;;36.38;34.42;;;;;;;1.05;100.00;100647.50;5035833;28;20049;-80
2022/02/08 03:45:57;;;;;;;41.15;38.95;;;;;;;1.24;100.00;100652.63;5028222;28;20488;-78
2022/02/08 03:48:26;;;;;;;40.13;38.03;;;;;;;1.24;100.00;100657.03;5036261;28;20543;-80
2022/02/08 03:50:55;;;;;;;39.10;36.80;;;;;;;1.12;100.00;100661.63;5037023;28;20387;-83
2022/02/08 03:53:23;;;;;;;42.05;39.55;;;;;;;0.78;100.00;100662.19;5035930;28;20059;-80
2022/02/08 03:55:50;;;;;;;40.55;38.00;;;;;;;0.78;100.00;100666.59;5035558;28;20567;-80
2022/02/08 03:58:17;;;;;;;35.97;33.67;;;;;;;0.97;100.00;100679.63;5036635;28;20464;-84
2022/02/08 04:00:57;;;;;;;31.88;29.80;;;;;;;0.99;100.00;100682.91;5035326;28;20041;-80
2022/02/08 04:03:28;;;;;;;35.60;33.42;;;;;;;0.91;100.00;100681.00;5034532;28;20049;-80
2022/02/08 04:05:57;;;;;;;51.25;48.35;;;;;;;0.80;100.00;100677.75;5036250;28;20500;-84
2022/02/08 04:08:23;;;;;;;48.22;45.72;;;;;;;0.82;100.00;100692.34;5036040;28;20080;-81
2022/02/08 04:10:51;;;;;;;50.72;47.97;;;;;;;0.76;100.00;100682.44;5036476;28;20053;-84
2022/02/08 04:13:22;;;;;;;47.70;45.03;;;;;;;0.66;100.00;100692.09;5036874;28;20449;-80
2022/02/08 04:16:03;;;;;;;40.58;38.35;;;;;;;0.44;100.00;100688.84;5026925;28;20045;-84
2022/02/08 04:18:45;;;;;;;43.63;41.33;;;;;;;0.58;100.00;100692.81;5026022;28;20149;-78
2022/02/08 04:32:39;;;;;;;40.45;38.13;;;;;;;0.70;100.00;100722.25;4982549;28;20467;-83
2022/02/08 04:35:36;;;;;;;31.25;29.45;;;;;;;0.75;100.00;100724.41;4977242;28;20051;-81
2022/02/08 04:38:15;;;;;;;34.95;32.92;;;;;;;0.84;100.00;100729.59;5022692;28;20049;-79
2022/02/08 04:40:52;;;;;;;35.60;33.63;;;;;;;0.98;100.00;100728.34;5035410;28;20046;-80
2022/02/08 04:43:29;;;;;;;32.88;30.95;;;;;;;0.83;100.00;100727.16;5034332;28;20504;-80
2022/02/08 04:45:59;;;;;;;60.60;57.10;;;;;;;0.89;100.00;100737.03;5027651;28;20050;-84
2022/02/08 04:51:26;;;;;;;54.10;51.00;;;;;;;0.84;100.00;100750.53;5033312;28;20409;-79
2022/02/08 04:54:08;;;;;;;46.55;43.88;;;;;;;0.79;100.00;100750.16;5025995;28;20049;-84
2022/02/08 04:56:48;;;;;;;53.90;51.10;;;;;;;0.84;100.00;100753.16;5027399;28;20049;-84
2022/02/08 04:59:27;;;;;;;46.47;43.97;;;;;;;0.74;100.00;100748.91;5034556;28;20473;-80
2022/02/08 05:26:57;;;;;;;36.45;34.35;;;;;;;1.00;100.00;100762.19;5032511;28;20051;-80
2022/02/08 05:43:23;;;;;;;42.13;39.20;;;;;;;1.31;100.00;100786.34;5027974;28;20516;-78
2022/02/08 05:46:15;;;;;;;51.03;47.72;;;;;;;1.06;100.00;100798.25;5027358;28;20587;-83
2022/02/08 05:48:47;;;;;;;54.90;51.83;;;;;;;4.30;100.00;100811.59;5027707;28;20162;-80
2022/02/08 05:51:17;;;;;;;74.13;69.18;;;;;;;1.49;100.00;100812.56;5027560;28;20041;-78
2022/02/08 05:53:46;;;;;;;73.43;68.18;;;;;;;1.33;100.00;100814.00;5027145;28;20399;-79
2022/02/08 05:56:15;;;;;;;75.95;70.25;;;;;;;1.28;100.00;100820.63;5030623;28;20083;-79
2022/02/08 05:58:44;;;;;;;63.75;59.00;;;;;;;1.10;100.00;100826.59;5030567;28;20045;-79
2022/02/08 06:01:11;;;;;;;65.90;61.03;;;;;;;1.20;100.00;100831.81;5030609;28;20041;-79
2022/02/08 06:03:45;;;;;;;70.10;65.40;;;;;;;1.45;100.00;100830.34;5030509;28;20486;-80
2022/02/08 06:06:12;;;;;;;55.50;51.70;;;;;;;1.22;100.00;100837.72;5024884;28;20053;-78
2022/02/08 06:08:39;;;;;;;54.78;50.97;;;;;;;1.31;100.00;100843.91;5033208;28;20107;-82
2022/02/08 06:11:14;;;;;;;57.70;53.75;;;;;;;1.21;100.00;100851.78;5032751;28;20469;-79
2022/02/08 06:13:42;;;;;;;61.20;57.50;;;;;;;1.30;100.00;100861.41;5033167;28;20056;-81
2022/02/08 06:16:16;;;;;;;71.00;65.72;;;;;;;1.30;100.00;100865.78;5032795;28;20049;-79
2022/02/08 06:18:42;;;;;;;69.15;64.20;;;;;;;1.32;100.00;100869.09;5033087;28;20053;-78
2022/02/08 06:21:09;;;;;;;64.95;60.47;;;;;;;1.42;100.00;100879.53;5033462;28;20045;-77
2022/02/08 06:23:36;;;;;;;74.95;69.63;;;;;;;1.53;100.00;100888.03;5036852;28;20060;-78
2022/02/08 06:26:03;;;;;;;81.88;75.82;;;;;;;1.44;100.00;100890.69;5036720;28;20049;-78
2022/02/08 06:28:30;;;;;;;73.15;67.85;;;;;;;1.38;100.00;100895.53;5036972;28;20045;-78
2022/02/08 06:30:58;;;;;;;82.75;76.68;;;;;;;1.37;100.00;100899.13;5036516;28;20193;-78
2022/02/08 06:33:25;;;;;;;72.57;67.78;;;;;;;1.44;100.00;100899.38;5036495;28;20053;-78
2022/02/08 06:35:51;;;;;;;73.57;68.65;;;;;;;1.49;100.00;100905.00;5036625;28;20042;-78
2022/02/08 06:38:19;;;;;;;65.90;61.40;;;;;;;1.48;100.00;100903.34;5036288;28;20131;-79
2022/02/08 06:40:50;;;;;;;77.97;72.40;;;;;;;1.45;100.00;100910.66;5036563;28;20485;-78
2022/02/08 06:43:17;;;;;;;84.50;78.00;;;;;;;1.44;100.00;100916.88;5036817;28;20049;-79
2022/02/08 06:45:44;;;;;;;75.20;68.95;;;;;;;1.55;100.00;100917.53;5036066;28;20476;-79
2022/02/08 06:48:13;;;;;;;69.10;63.60;;;;;;;1.55;100.00;100921.94;5033535;28;20045;-79
2022/02/08 06:50:40;;;;;;;74.03;67.68;;;;;;;1.77;100.00;100926.81;5034758;28;20539;-81
2022/02/08 06:53:07;;;;;;;80.15;73.95;;;;;;;1.63;100.00;100929.91;5036034;28;20111;-79
2022/02/08 06:55:34;;;;;;;73.10;67.50;;;;;;;1.60;100.00;100938.88;5036282;28;20183;-79
2022/02/08 06:58:03;;;;;;;64.25;60.05;;;;;;;1.73;100.00;100940.38;5036219;28;20041;-77
2022/02/08 07:00:34;;;;;;;64.15;60.10;;;;;;;1.68;100.00;100945.19;5034373;28;20078;-79
2022/02/08 07:03:10;;;;;;;59.88;55.70;;;;;;;2.02;100.00;100959.41;5033733;28;20041;-81
2022/02/08 07:05:39;;;;;;;65.13;60.58;;;;;;;1.93;100.00;100959.44;5031826;28;20123;-80
2022/02/08 07:08:07;;;;;;;61.30;57.00;;;;;;;1.84;100.00;100961.94;5035270;28;20042;-80
2022/02/08 07:10:34;;;;;;;67.30;62.30;;;;;;;2.06;100.00;100957.34;5035562;28;20045;-80
2022/02/08 07:13:01;;;;;;;64.63;60.22;;;;;;;1.96;100.00;100973.06;5035002;28;20081;-79
2022/02/08 07:15:28;;;;;;;82.32;74.40;;;;;;;2.00;100.00;100984.94;5035831;28;20048;-80
2022/02/08 07:17:55;;;;;;;81.38;73.93;;;;;;;2.02;100.00;100982.97;5035996;28;20045;-81
2022/02/08 07:20:22;;;;;;;92.40;84.13;;;;;;;2.10;100.00;100986.69;5036263;28;20107;-80
2022/02/08 07:22:50;;;;;;;79.18;72.47;;;;;;;2.25;100.00;100988.69;5035755;28;20053;-81
2022/02/08 07:25:16;;;;;;;77.45;70.90;;;;;;;2.14;100.00;100983.63;5035882;28;20049;-79
2022/02/08 07:27:43;;;;;;;78.20;71.63;;;;;;;2.19;100.00;100984.03;5035867;28;20045;-78
2022/02/08 07:30:13;;;;;;;79.45;72.82;;;;;;;2.29;100.00;100991.84;5032737;28;20053;-77
2022/02/08 07:32:41;;;;;;;75.82;69.47;;;;;;;2.16;100.00;100986.13;5034639;28;20045;-79
2022/02/08 07:35:22;;;;;;;79.07;72.43;;;;;;;1.90;100.00;100992.00;5032826;28;20049;-78
2022/02/08 07:37:56;;;;;;;78.43;71.80;;;;;;;2.10;100.00;100998.00;5030464;28;20422;-79
2022/02/08 07:40:42;;;;;;;87.18;79.55;;;;;;;1.92;100.00;100997.91;5034051;28;20128;-80
2022/02/08 07:43:09;;;;;;;76.43;69.97;;;;;;;2.40;100.00;101006.56;5027853;28;20049;-79
2022/02/08 07:45:36;;;;;;;82.65;75.43;;;;;;;2.44;100.00;101013.97;5034091;28;20123;-77
2022/02/08 07:48:03;;;;;;;84.75;77.20;;;;;;;2.53;100.00;101015.72;5035209;28;20371;-78
2022/02/08 07:50:31;;;;;;;83.63;76.53;;;;;;;2.65;100.00;101026.84;5035949;28;20049;-77
2022/02/08 07:52:59;;;;;;;81.55;74.68;;;;;;;2.56;100.00;101034.78;5034557;28;20136;-79
2022/02/08 07:55:25;;;;;;;81.18;74.55;;;;;;;2.33;100.00;101036.94;5033575;28;20045;-78
2022/02/08 07:57:52;;;;;;;68.47;63.17;;;;;;;2.60;100.00;101050.06;5032365;28;20045;-77
2022/02/08 08:00:19;;;;;;;77.88;71.45;;;;;;;2.76;100.00;101052.06;5035896;28;20137;-79
2022/02/08 08:02:46;;;;;;;87.25;79.93;;;;;;;2.87;100.00;101051.84;5032437;28;20057;-79
2022/02/08 08:05:14;;;;;;;77.20;70.80;;;;;;;2.99;100.00;101057.72;5035062;28;20053;-78
2022/02/08 08:07:41;;;;;;;74.85;67.88;;;;;;;2.80;100.00;101066.53;5029202;28;20535;-78
2022/02/08 08:10:17;;;;;;;87.03;77.32;;;;;;;2.95;100.00;101062.44;5034097;28;20504;-78
2022/02/08 08:12:47;;;;;;;84.55;76.75;;;;;;;3.31;100.00;101074.78;5030752;28;20049;-79
2022/02/08 08:15:26;;;;;;;73.15;67.20;;;;;;;3.02;100.00;101069.72;5032069;28;20057;-79
2022/02/08 08:17:58;;;;;;;83.28;76.05;;;;;;;2.79;100.00;101077.19;5032318;28;20071;-78
2022/02/08 08:20:25;;;;;;;69.65;64.40;;;;;;;2.95;100.00;101090.47;5034126;28;20053;-78
2022/02/08 08:22:52;;;;;;;77.18;71.03;;;;;;;3.09;100.00;101089.16;5033596;28;20107;-78
2022/02/08 08:25:21;;;;;;;81.88;74.40;;;;;;;3.10;100.00;101096.06;5034443;28;20111;-82
2022/02/08 08:27:48;;;;;;;82.68;75.35;;;;;;;3.21;100.00;101106.34;5035223;28;20045;-81
2022/02/08 08:30:16;;;;;;;82.80;75.03;;;;;;;3.26;100.00;101119.03;5032942;28;20061;-78
2022/02/08 08:32:42;;;;;;;75.75;68.90;;;;;;;2.87;100.00;101114.00;5032188;28;20175;-79
2022/02/08 08:35:11;;;;;;;95.50;86.60;;;;;;;3.03;100.00;101119.44;5034555;28;20057;-79
2022/02/08 08:37:41;;;;;;;81.50;74.82;;;;;;;3.13;100.00;101119.38;5034627;28;20121;-78
2022/02/08 08:40:19;;;;;;;83.80;77.03;;;;;;;3.47;100.00;101126.63;5033531;28;20068;-79
2022/02/08 08:42:58;;;;;;;81.63;74.80;;;;;;;3.52;100.00;101132.25;5034823;28;20367;-82
2022/02/08 08:51:04;;;;;;;87.22;79.35;;;;;;;3.53;100.00;101141.78;5031175;28;20057;-82
2022/02/08 08:53:33;;;;;;;93.00;84.88;;;;;;;3.89;100.00;101143.41;5032224;28;20060;-81
2022/02/08 08:55:59;;;;;;;95.45;86.82;;;;;;;4.02;100.00;101150.09;5035233;28;20048;-81
2022/02/08 08:58:28;;;;;;;90.40;82.53;;;;;;;3.82;100.00;101147.63;5035574;28;20056;-81
2022/02/08 09:00:56;;;;;;;82.30;75.53;;;;;;;3.99;100.00;101148.59;5034060;28;20076;-79
2022/02/08 09:03:23;;;;;;;81.30;74.10;;;;;;;3.60;100.00;101148.94;5031874;28;20144;-79
2022/02/08 09:05:50;;;;;;;80.28;73.97;;;;;;;4.00;100.00;101160.78;5034294;28;20049;-84
2022/02/08 09:08:17;;;;;;;88.93;82.13;;;;;;;3.61;100.00;101163.69;5028468;28;20046;-83
2022/02/08 09:10:50;;;;;;;81.43;74.93;;;;;;;4.10;100.00;101166.75;5032064;28;20045;-80
2022/02/08 09:13:26;;;;;;;85.60;78.95;;;;;;;3.96;100.00;101171.72;5034572;28;20087;-81
2022/02/08 09:16:01;;;;;;;80.45;73.60;;;;;;;3.94;100.00;101160.56;5026601;28;20466;-80
2022/02/08 09:19:05;;;;;;;75.80;69.75;;;;;;;4.09;100.00;101162.47;5025840;28;20045;-82
2022/02/08 09:24:53;;;;;;;85.68;78.50;;;;;;;4.46;100.00;101161.41;5029692;28;20531;-78
2022/02/08 09:30:09;;;;;;;92.32;84.88;;;;;;;4.70;100.00;101168.63;5023403;28;20199;-79
2022/02/08 09:32:44;;;;;;;86.82;79.78;;;;;;;4.62;100.00;101163.31;5035209;28;20056;-78
2022/02/08 09:35:12;;;;;;;88.70;81.57;;;;;;;5.54;100.00;101166.13;5034179;28;20057;-79
2022/02/08 09:37:39;;;;;;;95.25;87.95;;;;;;;5.46;100.00;101172.22;5033310;28;20045;-79
2022/02/08 09:40:08;;;;;;;96.43;89.13;;;;;;;4.99;100.00;101163.03;5034159;28;20057;-79
2022/02/08 09:42:38;;;;;;;84.32;78.13;;;;;;;5.56;100.00;101164.16;5034149;28;20374;-80
2022/02/08 09:45:06;;;;;;;91.25;84.25;;;;;;;7.42;100.00;101161.34;5035212;28;20080;-80
2022/02/08 09:47:40;;;;;;;93.30;86.00;;;;;;;7.50;100.00;101163.09;5036235;28;20049;-79
2022/02/08 09:50:16;;;;;;;85.05;78.63;;;;;;;6.60;100.00;101155.59;5034788;28;20060;-79
2022/02/08 09:52:47;;;;;;;84.40;78.38;;;;;;;6.57;100.00;101166.50;5035617;28;20060;-79
2022/02/08 09:55:14;;;;;;;82.95;76.72;;;;;;;6.47;100.00;101166.66;5034422;28;20462;-79
2022/02/08 09:57:42;;;;;;;75.20;69.85;;;;;;;6.24;100.00;101166.53;5039138;28;20056;-80
2022/02/08 10:00:09;;;;;;;87.07;80.57;;;;;;;6.08;100.00;101169.16;5039864;28;20111;-79
2022/02/08 10:02:37;;;;;;;80.82;75.03;;;;;;;5.73;100.00;101163.19;5038542;28;20115;-79
2022/02/08 10:05:05;;;;;;;79.78;74.57;;;;;;;6.31;100.00;101164.06;5036797;28;20053;-78
2022/02/08 10:07:34;;;;;;;74.72;69.85;;;;;;;6.94;100.00;101157.13;5037546;28;20099;-80
2022/02/08 10:10:01;;;;;;;75.28;69.50;;;;;;;8.51;100.00;101155.88;5036857;28;20477;-80
2022/02/08 10:12:48;;;;;;;71.70;66.20;;;;;;;8.41;100.00;101156.97;5039604;28;20053;-80
2022/02/08 10:23:28;;;;;;;73.90;68.90;;;;;;;9.47;100.00;101157.50;5039334;28;20162;-80
2022/02/08 10:26:06;;;;;;;78.63;73.32;;;;;;;10.20;100.00;101154.72;5037630;28;20050;-79
2022/02/08 10:28:52;;;;;;;76.85;71.55;;;;;;;8.27;100.00;101150.63;5037888;28;20080;-79
2022/02/08 10:31:44;;;;;;;77.72;72.03;;;;;;;9.44;100.00;101155.25;5038100;28;20395;-80
2022/02/08 10:39:59;;;;;;;74.47;69.53;;;;;;;12.01;100.00;101150.78;5036420;28;20056;-79
2022/02/08 10:42:28;;;;;;;80.20;74.63;;;;;;;9.92;100.00;101163.44;5036982;28;20042;-80
2022/02/08 10:44:55;;;;;;;80.00;74.80;;;;;;;12.33;100.00;101165.09;5037658;28;20046;-79
2022/02/08 10:47:35;;;;;;;80.07;74.50;;;;;;;14.06;100.00;101150.16;5038701;28;20551;-79
2022/02/08 10:50:03;;;;;;;87.00;80.32;;;;;;;9.91;100.00;101148.53;5038087;28;20600;-77
2022/02/08 10:52:30;;;;;;;83.07;77.28;;;;;;;11.89;100.00;101150.56;5035837;28;20060;-79
2022/02/08 10:55:06;;;;;;;83.40;77.18;;;;;;;13.18;100.00;101148.25;5037967;28;20077;-78
2022/02/08 10:57:45;;;;;;;97.93;90.47;;;;;;;13.01;89.12;101151.41;5022000;28;20049;-79
2022/02/08 11:00:13;;;;;;;87.07;80.68;;;;;;;10.39;100.00;101159.38;5032967;28;20081;-78
2022/02/08 11:02:44;;;;;;;88.03;81.93;;;;;;;11.92;100.00;101154.63;5028034;28;20084;-79
2022/02/08 11:05:19;;;;;;;85.38;79.47;;;;;;;11.69;93.26;101163.00;5037369;28;20080;-79
2022/02/08 11:10:59;;;;;;;85.05;79.35;;;;;;;11.68;90.55;101151.53;5038083;28;20056;-79
2022/02/08 11:13:43;;;;;;;86.78;80.90;;;;;;;10.55;91.96;101158.22;5039414;28;20391;-79
2022/02/08 11:16:17;;;;;;;79.93;74.35;;;;;;;10.95;97.99;101167.25;5037282;28;20051;-77
2022/02/08 11:19:05;;;;;;;89.30;83.10;;;;;;;10.96;98.31;101162.75;5036773;28;20049;-79
2022/02/08 11:21:49;;;;;;;99.15;92.55;;;;;;;10.19;100.00;101164.47;5038461;28;20136;-81
2022/02/08 11:24:24;;;;;;;102.75;95.75;;;;;;;9.36;100.00;101165.94;5033802;28;20057;-80
2022/02/08 11:26:59;;;;;;;92.53;86.53;;;;;;;10.96;100.00;101168.09;5033029;28;20478;-79
2022/02/08 11:29:30;;;;;;;88.03;82.32;;;;;;;11.57;89.25;101161.94;5035939;28;20046;-80
2022/02/08 11:32:15;;;;;;;97.05;90.85;;;;;;;13.40;75.42;101162.94;5039286;28;20107;-79
2022/02/08 11:46:13;;;;;;;90.63;84.13;;;;;;;13.44;67.37;101168.69;5035957;28;20132;-80
2022/02/08 11:49:12;;;;;;;107.15;100.07;;;;;;;12.08;65.37;101172.88;5028794;28;20056;-80
2022/02/08 11:51:50;;;;;;;105.82;98.78;;;;;;;12.21;71.89;101165.91;5034442;28;20054;-79
2022/02/08 11:54:36;;;;;;;108.25;100.57;;;;;;;12.79;67.96;101163.34;5037266;28;20502;-81
2022/02/08 12:05:42;;;;;;;101.88;93.90;;;;;;;13.91;57.36;101159.31;5017538;28;20049;-79
2022/02/08 12:08:14;;;;;;;99.90;91.72;;;;;;;13.87;55.23;101160.78;5036338;28;20059;-79
2022/02/08 12:10:45;;;;;;;95.95;88.55;;;;;;;15.19;58.50;101146.31;5033453;28;20382;-80
2022/02/08 12:13:28;;;;;;;93.90;87.60;;;;;;;14.10;51.89;101152.19;5039150;28;20057;-80
2022/02/08 12:35:42;;;;;;;58.58;55.20;;;;;;;9.31;84.05;101153.25;5031834;28;20057;-79
2022/02/08 12:50:23;;;;;;;87.18;82.78;;;;;;;12.25;66.08;101159.97;5039215;28;20071;-80
2022/02/08 12:58:26;;;;;;;64.65;60.75;;;;;;;10.95;57.57;101161.09;5034470;28;20053;-78
2022/02/08 13:01:31;;;;;;;58.40;55.50;;;;;;;10.50;57.56;101179.25;5027322;28;20041;-79
2022/02/08 13:04:09;;;;;;;58.67;55.35;;;;;;;9.79;61.12;101182.72;5029295;28;20049;-80
2022/02/08 13:17:02;;;;;;;73.32;69.63;;;;;;;12.07;48.35;101187.22;5035567;28;20064;-78
2022/02/08 14:01:26;;;;;;;70.68;66.88;;;;;;;11.37;49.93;101178.66;5025195;28;20142;-78
2022/02/08 14:08:31;;;;;;;67.50;63.78;;;;;;;8.00;53.58;101249.06;5034051;28;20072;-79
2022/02/08 14:13:54;;;;;;;64.18;60.78;;;;;;;7.74;56.58;101260.78;5001223;28;20132;-79
2022/02/08 14:16:40;;;;;;;58.10;54.90;;;;;;;8.66;55.38;101274.03;5039736;28;20065;-78
2022/02/08 14:19:27;;;;;;;64.70;60.03;;;;;;;8.35;55.42;101283.88;5035470;28;20072;-79
2022/02/08 14:21:58;;;;;;;58.58;54.88;;;;;;;7.85;55.72;101290.50;5037090;28;20049;-80
2022/02/08 14:24:47;;;;;;;64.93;59.72;;;;;;;7.39;57.50;101293.84;5036855;28;20509;-79
2022/02/08 14:30:03;;;;;;;60.80;57.45;;;;;;;7.45;59.35;101301.09;5037038;28;20130;-80
2022/02/08 14:32:35;;;;;;;60.30;56.38;;;;;;;7.08;58.82;101309.59;5037563;28;20049;-79
2022/02/08 15:05:30;;;;;;;64.78;60.30;;;;;;;5.64;72.77;101348.66;4988172;28;20089;-79
2022/02/08 15:08:03;;;;;;;69.82;63.85;;;;;;;5.49;74.32;101351.88;4987431;28;20046;-79
2022/02/08 15:10:37;;;;;;;79.45;71.20;;;;;;;5.39;73.47;101358.25;4994017;28;20046;-78
2022/02/08 15:13:06;;;;;;;61.40;56.28;;;;;;;5.22;77.79;101358.16;4981546;28;20143;-78
2022/02/08 15:15:42;;;;;;;56.17;51.97;;;;;;;5.10;80.65;101362.03;4986810;28;20082;-78
2022/02/08 15:18:10;;;;;;;55.83;52.22;;;;;;;4.82;85.44;101358.69;4988908;28;20422;-78
2022/02/08 15:20:37;;;;;;;55.35;51.47;;;;;;;4.89;87.13;101366.81;4987204;28;20462;-80
2022/02/08 15:23:08;;;;;;;60.67;56.00;;;;;;;4.76;94.44;101368.03;4984521;28;20051;-78
2022/02/08 15:25:35;;;;;;;60.50;55.90;;;;;;;4.65;97.24;101373.50;4985435;28;20451;-79
2022/02/08 15:28:03;;;;;;;62.90;57.67;;;;;;;4.50;100.00;101382.91;4994427;28;20050;-79
2022/02/08 15:30:31;;;;;;;63.00;58.00;;;;;;;4.49;100.00;101383.91;4991475;28;20047;-79
2022/02/08 15:32:59;;;;;;;60.20;55.80;;;;;;;4.29;100.00;101388.44;4986391;28;20046;-78
2022/02/08 15:35:27;;;;;;;60.53;56.05;;;;;;;4.22;100.00;101387.41;4993401;28;20053;-79
2022/02/08 15:37:54;;;;;;;58.80;54.53;;;;;;;4.27;100.00;101393.88;4987490;28;20047;-79